PAX377 FIMP-FMEE
Flight info
| Callsign | PAX377 |
|---|---|
| Flight time | 0h 35m |
| Altitude | 20000 |
| Route | SOBAT1 SOBAT SOBAT2R |
| Aircraft | A20N/M-SDE2E3FGHIRWXY/LB1 |
Departure
| Time | 2026-04-22 11:12 |
|---|---|
| Airport | Sir Seewoosagur Ramgoolam International Airport (FIMP) |
Arrival
| Time | 2026-04-22 11:48 |
|---|---|
| Airport | Roland Garros Airport (FMEE) |
| Time | Latitude | Longitude | Altitude | Speed | Heading |
|---|---|---|---|---|---|
| 2026-04-22 11:03 | -20.42669 | 57.67470 | 198 ft | 0 kts | 309° |
| 2026-04-22 11:07 | -20.42663 | 57.67461 | 198 ft | 7 kts | 302° |
| 2026-04-22 11:07 | -20.42651 | 57.67399 | 201 ft | 10 kts | 270° |
| 2026-04-22 11:07 | -20.42641 | 57.67310 | 204 ft | 17 kts | 289° |
| 2026-04-22 11:07 | -20.42566 | 57.67143 | 210 ft | 30 kts | 297° |
| 2026-04-22 11:08 | -20.42473 | 57.66959 | 218 ft | 25 kts | 297° |
| 2026-04-22 11:08 | -20.42421 | 57.66886 | 221 ft | 7 kts | 9° |
| 2026-04-22 11:08 | -20.42377 | 57.66915 | 219 ft | 7 kts | 31° |
| 2026-04-22 11:08 | -20.42342 | 57.66949 | 216 ft | 0 kts | 127° |
| 2026-04-22 11:09 | -20.42346 | 57.66955 | 216 ft | 3 kts | 121° |
| 2026-04-22 11:09 | -20.42351 | 57.66964 | 216 ft | 1 kts | 118° |
| 2026-04-22 11:09 | -20.42354 | 57.66970 | 215 ft | 0 kts | 117° |
| 2026-04-22 11:11 | -20.42355 | 57.66971 | 215 ft | 1 kts | 117° |
| 2026-04-22 11:12 | -20.42409 | 57.67086 | 210 ft | 57 kts | 116° |
| 2026-04-22 11:12 | -20.42739 | 57.67771 | 187 ft | 147 kts | 117° |
| 2026-04-22 11:12 | -20.43260 | 57.68853 | 795 ft | 170 kts | 117° |
| 2026-04-22 11:12 | -20.43815 | 57.69995 | 1775 ft | 167 kts | 116° |
| 2026-04-22 11:13 | -20.44358 | 57.71136 | 2353 ft | 181 kts | 115° |
| 2026-04-22 11:13 | -20.45164 | 57.72251 | 2752 ft | 203 kts | 142° |
| 2026-04-22 11:13 | -20.46565 | 57.72730 | 3178 ft | 229 kts | 176° |
| 2026-04-22 11:13 | -20.48234 | 57.72399 | 3723 ft | 255 kts | 192° |
| 2026-04-22 11:14 | -20.50008 | 57.71902 | 4455 ft | 270 kts | 189° |
| 2026-04-22 11:14 | -20.51865 | 57.71441 | 5435 ft | 278 kts | 196° |
| 2026-04-22 11:14 | -20.53523 | 57.70347 | 6421 ft | 289 kts | 223° |
| 2026-04-22 11:14 | -20.54614 | 57.68538 | 7411 ft | 297 kts | 249° |
| 2026-04-22 11:15 | -20.54895 | 57.66336 | 8387 ft | 303 kts | 275° |
| 2026-04-22 11:15 | -20.54290 | 57.64201 | 9333 ft | 306 kts | 301° |
| 2026-04-22 11:15 | -20.53102 | 57.62336 | 10305 ft | 309 kts | 305° |
| 2026-04-22 11:15 | -20.51980 | 57.60336 | 11308 ft | 314 kts | 298° |
| 2026-04-22 11:16 | -20.51062 | 57.58223 | 12280 ft | 319 kts | 293° |
| 2026-04-22 11:16 | -20.50236 | 57.56023 | 13239 ft | 323 kts | 291° |
| 2026-04-22 11:16 | -20.49432 | 57.53769 | 14183 ft | 327 kts | 291° |
| 2026-04-22 11:16 | -20.48621 | 57.51474 | 15112 ft | 331 kts | 291° |
| 2026-04-22 11:17 | -20.47807 | 57.49179 | 15909 ft | 338 kts | 291° |
| 2026-04-22 11:17 | -20.47031 | 57.46795 | 16105 ft | 339 kts | 281° |
| 2026-04-22 11:17 | -20.46900 | 57.44245 | 16162 ft | 363 kts | 264° |
| 2026-04-22 11:17 | -20.47309 | 57.41465 | 16173 ft | 397 kts | 257° |
| 2026-04-22 11:18 | -20.47961 | 57.38476 | 16171 ft | 433 kts | 255° |
| 2026-04-22 11:18 | -20.48685 | 57.35290 | 16161 ft | 446 kts | 256° |
| 2026-04-22 11:18 | -20.49395 | 57.32091 | 16151 ft | 447 kts | 256° |
| 2026-04-22 11:18 | -20.50089 | 57.28897 | 16149 ft | 447 kts | 256° |
| 2026-04-22 11:19 | -20.50787 | 57.25657 | 16149 ft | 447 kts | 256° |
| 2026-04-22 11:19 | -20.51482 | 57.22421 | 16196 ft | 446 kts | 256° |
| 2026-04-22 11:19 | -20.52175 | 57.19200 | 16734 ft | 450 kts | 256° |
| 2026-04-22 11:19 | -20.52870 | 57.15963 | 17333 ft | 454 kts | 256° |
| 2026-04-22 11:20 | -20.53580 | 57.12656 | 17938 ft | 457 kts | 256° |
| 2026-04-22 11:20 | -20.54293 | 57.09334 | 18541 ft | 461 kts | 256° |
| 2026-04-22 11:20 | -20.55005 | 57.06008 | 19140 ft | 465 kts | 256° |
| 2026-04-22 11:20 | -20.55727 | 57.02637 | 19743 ft | 468 kts | 256° |
| 2026-04-22 11:21 | -20.56448 | 56.99265 | 20340 ft | 472 kts | 256° |
| 2026-04-22 11:21 | -20.57178 | 56.95851 | 20940 ft | 476 kts | 256° |
| 2026-04-22 11:21 | -20.57911 | 56.92413 | 21540 ft | 480 kts | 256° |
| 2026-04-22 11:21 | -20.58651 | 56.88944 | 22140 ft | 484 kts | 256° |
| 2026-04-22 11:22 | -20.59405 | 56.85401 | 22744 ft | 488 kts | 256° |
| 2026-04-22 11:22 | -20.60156 | 56.81875 | 23038 ft | 492 kts | 256° |
| 2026-04-22 11:22 | -20.60902 | 56.78364 | 23067 ft | 490 kts | 256° |
| 2026-04-22 11:22 | -20.61657 | 56.74806 | 23069 ft | 490 kts | 256° |
| 2026-04-22 11:23 | -20.62402 | 56.71292 | 23070 ft | 490 kts | 256° |
| 2026-04-22 11:23 | -20.63135 | 56.67830 | 23070 ft | 490 kts | 256° |
| 2026-04-22 11:23 | -20.63779 | 56.64790 | 23070 ft | 490 kts | 256° |
| 2026-04-22 11:23 | -20.64529 | 56.61241 | 23070 ft | 490 kts | 256° |
| 2026-04-22 11:24 | -20.65273 | 56.57717 | 23070 ft | 490 kts | 256° |
| 2026-04-22 11:24 | -20.66019 | 56.54182 | 23065 ft | 490 kts | 256° |
| 2026-04-22 11:24 | -20.66769 | 56.50624 | 23059 ft | 490 kts | 257° |
| 2026-04-22 11:24 | -20.67511 | 56.47101 | 23058 ft | 490 kts | 257° |
| 2026-04-22 11:25 | -20.68250 | 56.43584 | 23059 ft | 490 kts | 257° |
| 2026-04-22 11:25 | -20.68996 | 56.40036 | 23058 ft | 490 kts | 257° |
| 2026-04-22 11:25 | -20.69738 | 56.36501 | 23059 ft | 490 kts | 257° |
| 2026-04-22 11:25 | -20.70478 | 56.32966 | 23058 ft | 490 kts | 257° |
| 2026-04-22 11:26 | -20.71218 | 56.29432 | 23058 ft | 490 kts | 257° |
| 2026-04-22 11:26 | -20.71725 | 56.25823 | 23053 ft | 484 kts | 265° |
| 2026-04-22 11:26 | -20.71814 | 56.22302 | 23052 ft | 468 kts | 270° |
| 2026-04-22 11:26 | -20.71723 | 56.18892 | 22788 ft | 461 kts | 272° |
| 2026-04-22 11:27 | -20.71600 | 56.15491 | 22193 ft | 459 kts | 272° |
| 2026-04-22 11:27 | -20.71495 | 56.12115 | 21589 ft | 452 kts | 271° |
| 2026-04-22 11:27 | -20.71409 | 56.08815 | 20993 ft | 446 kts | 271° |
| 2026-04-22 11:27 | -20.71331 | 56.05533 | 20392 ft | 440 kts | 271° |
| 2026-04-22 11:28 | -20.71253 | 56.02288 | 19790 ft | 434 kts | 271° |
| 2026-04-22 11:28 | -20.71175 | 55.99092 | 19189 ft | 428 kts | 271° |
| 2026-04-22 11:28 | -20.71098 | 55.95962 | 18592 ft | 422 kts | 271° |
| 2026-04-22 11:28 | -20.71020 | 55.92859 | 17993 ft | 417 kts | 271° |
| 2026-04-22 11:29 | -20.70943 | 55.89796 | 17393 ft | 412 kts | 271° |
| 2026-04-22 11:29 | -20.70867 | 55.86794 | 16799 ft | 407 kts | 271° |
| 2026-04-22 11:29 | -20.70790 | 55.83788 | 16197 ft | 402 kts | 271° |
| 2026-04-22 11:29 | -20.70713 | 55.80804 | 15593 ft | 398 kts | 271° |
| 2026-04-22 11:30 | -20.70638 | 55.77888 | 14995 ft | 393 kts | 271° |
| 2026-04-22 11:30 | -20.70562 | 55.74978 | 14393 ft | 389 kts | 271° |
| 2026-04-22 11:30 | -20.70487 | 55.72126 | 13797 ft | 385 kts | 271° |
| 2026-04-22 11:30 | -20.70412 | 55.69280 | 13197 ft | 382 kts | 271° |
| 2026-04-22 11:31 | -20.70338 | 55.66493 | 12778 ft | 373 kts | 271° |
| 2026-04-22 11:31 | -20.70256 | 55.63809 | 12694 ft | 355 kts | 271° |
| 2026-04-22 11:31 | -20.70165 | 55.61229 | 12679 ft | 335 kts | 272° |
| 2026-04-22 11:31 | -20.70076 | 55.58805 | 12450 ft | 325 kts | 272° |
| 2026-04-22 11:32 | -20.69986 | 55.56398 | 11859 ft | 328 kts | 272° |
| 2026-04-22 11:32 | -20.69904 | 55.54215 | 11324 ft | 330 kts | 272° |
| 2026-04-22 11:32 | -20.69808 | 55.51670 | 10703 ft | 331 kts | 272° |
| 2026-04-22 11:32 | -20.69715 | 55.49190 | 10100 ft | 332 kts | 272° |
| 2026-04-22 11:33 | -20.69624 | 55.46787 | 9517 ft | 333 kts | 272° |
| 2026-04-22 11:33 | -20.69528 | 55.44274 | 8907 ft | 333 kts | 272° |
| 2026-04-22 11:33 | -20.69434 | 55.41802 | 8307 ft | 333 kts | 272° |
| 2026-04-22 11:33 | -20.69339 | 55.39340 | 7710 ft | 333 kts | 272° |
| 2026-04-22 11:34 | -20.69245 | 55.36893 | 7115 ft | 333 kts | 272° |
| 2026-04-22 11:34 | -20.69150 | 55.34431 | 6516 ft | 332 kts | 272° |
| 2026-04-22 11:34 | -20.69054 | 55.31997 | 5923 ft | 332 kts | 272° |
| 2026-04-22 11:34 | -20.68955 | 55.29538 | 5323 ft | 331 kts | 272° |
| 2026-04-22 11:35 | -20.68857 | 55.27075 | 4720 ft | 330 kts | 272° |
| 2026-04-22 11:35 | -20.68759 | 55.24636 | 4121 ft | 329 kts | 272° |
| 2026-04-22 11:35 | -20.68662 | 55.22202 | 3524 ft | 328 kts | 272° |
| 2026-04-22 11:35 | -20.68566 | 55.19805 | 3211 ft | 317 kts | 272° |
| 2026-04-22 11:36 | -20.68650 | 55.17548 | 3145 ft | 296 kts | 255° |
| 2026-04-22 11:36 | -20.69466 | 55.15720 | 3140 ft | 269 kts | 227° |
| 2026-04-22 11:36 | -20.70857 | 55.14594 | 3137 ft | 237 kts | 196° |
| 2026-04-22 11:36 | -20.72365 | 55.14427 | 3152 ft | 201 kts | 162° |
| 2026-04-22 11:37 | -20.73484 | 55.15060 | 3190 ft | 173 kts | 139° |
| 2026-04-22 11:37 | -20.74425 | 55.15848 | 3164 ft | 171 kts | 138° |
| 2026-04-22 11:37 | -20.75356 | 55.16636 | 3162 ft | 171 kts | 138° |
| 2026-04-22 11:37 | -20.76285 | 55.17423 | 3159 ft | 171 kts | 138° |
| 2026-04-22 11:38 | -20.77196 | 55.18229 | 3146 ft | 169 kts | 129° |
| 2026-04-22 11:38 | -20.77579 | 55.19371 | 3159 ft | 168 kts | 87° |
| 2026-04-22 11:38 | -20.76116 | 55.21282 | 3159 ft | 173 kts | 54° |
| 2026-04-22 11:39 | -20.75752 | 55.22443 | 3166 ft | 168 kts | 95° |
| 2026-04-22 11:39 | -20.76226 | 55.23517 | 3169 ft | 170 kts | 133° |
| 2026-04-22 11:39 | -20.77162 | 55.24351 | 3175 ft | 171 kts | 138° |
| 2026-04-22 11:39 | -20.78084 | 55.25131 | 3167 ft | 171 kts | 138° |
| 2026-04-22 11:40 | -20.79026 | 55.25925 | 3165 ft | 171 kts | 140° |
| 2026-04-22 11:40 | -20.80077 | 55.26551 | 3165 ft | 174 kts | 154° |
| 2026-04-22 11:40 | -20.81242 | 55.26888 | 3167 ft | 177 kts | 165° |
| 2026-04-22 11:40 | -20.82331 | 55.27420 | 3153 ft | 170 kts | 130° |
| 2026-04-22 11:41 | -20.82759 | 55.28556 | 3169 ft | 168 kts | 92° |
| 2026-04-22 11:41 | -20.82743 | 55.29786 | 3166 ft | 161 kts | 89° |
| 2026-04-22 11:41 | -20.82710 | 55.30917 | 3139 ft | 145 kts | 89° |
| 2026-04-22 11:41 | -20.82679 | 55.31960 | 3179 ft | 141 kts | 89° |
| 2026-04-22 11:42 | -20.82649 | 55.33013 | 3179 ft | 141 kts | 89° |
| 2026-04-22 11:42 | -20.82618 | 55.34051 | 3167 ft | 141 kts | 89° |
| 2026-04-22 11:42 | -20.82588 | 55.35079 | 3166 ft | 141 kts | 89° |
| 2026-04-22 11:42 | -20.82558 | 55.36129 | 3156 ft | 134 kts | 89° |
| 2026-04-22 11:43 | -20.82541 | 55.37074 | 3116 ft | 134 kts | 93° |
| 2026-04-22 11:43 | -20.82711 | 55.38041 | 2912 ft | 128 kts | 107° |
| 2026-04-22 11:43 | -20.83028 | 55.38918 | 2708 ft | 126 kts | 112° |
| 2026-04-22 11:43 | -20.83396 | 55.39763 | 2444 ft | 124 kts | 114° |
| 2026-04-22 11:44 | -20.83653 | 55.40322 | 2246 ft | 124 kts | 114° |
| 2026-04-22 11:44 | -20.83992 | 55.41048 | 2042 ft | 123 kts | 115° |
| 2026-04-22 11:44 | -20.84345 | 55.41798 | 1876 ft | 123 kts | 115° |
| 2026-04-22 11:44 | -20.84731 | 55.42617 | 1700 ft | 123 kts | 115° |
| 2026-04-22 11:45 | -20.85104 | 55.43407 | 1534 ft | 123 kts | 115° |
| 2026-04-22 11:45 | -20.85492 | 55.44227 | 1366 ft | 123 kts | 115° |
| 2026-04-22 11:45 | -20.85826 | 55.44934 | 1220 ft | 122 kts | 115° |
| 2026-04-22 11:45 | -20.86182 | 55.45689 | 1065 ft | 122 kts | 115° |
| 2026-04-22 11:46 | -20.86395 | 55.46140 | 973 ft | 122 kts | 115° |
| 2026-04-22 11:46 | -20.86744 | 55.46880 | 822 ft | 122 kts | 115° |
| 2026-04-22 11:46 | -20.87133 | 55.47704 | 655 ft | 121 kts | 115° |
| 2026-04-22 11:46 | -20.87507 | 55.48498 | 494 ft | 121 kts | 115° |
| 2026-04-22 11:47 | -20.87887 | 55.49302 | 331 ft | 121 kts | 115° |
| 2026-04-22 11:47 | -20.88264 | 55.50102 | 171 ft | 120 kts | 115° |
| 2026-04-22 11:47 | -20.88634 | 55.50891 | 62 ft | 112 kts | 115° |
| 2026-04-22 11:47 | -20.88895 | 55.51450 | 70 ft | 56 kts | 120° |
| 2026-04-22 11:48 | -20.89004 | 55.51664 | 72 ft | 23 kts | 116° |
| 2026-04-22 11:48 | -20.89070 | 55.51808 | 73 ft | 20 kts | 116° |
| 2026-04-22 11:48 | -20.89128 | 55.51933 | 74 ft | 18 kts | 116° |
| 2026-04-22 11:48 | -20.89181 | 55.52047 | 75 ft | 16 kts | 116° |
| 2026-04-22 11:49 | -20.89229 | 55.52150 | 75 ft | 14 kts | 117° |
| 2026-04-22 11:49 | -20.89274 | 55.52234 | 76 ft | 12 kts | 133° |
| 2026-04-22 11:49 | -20.89318 | 55.52224 | 80 ft | 7 kts | 253° |
| 2026-04-22 11:49 | -20.89350 | 55.52199 | 82 ft | 4 kts | 206° |
| 2026-04-22 11:50 | -20.89359 | 55.52194 | 83 ft | 2 kts | 206° |
| 2026-04-22 11:50 | -20.89391 | 55.52168 | 86 ft | 10 kts | 234° |
| 2026-04-22 11:50 | -20.89378 | 55.52072 | 88 ft | 17 kts | 297° |
| 2026-04-22 11:50 | -20.89310 | 55.51934 | 87 ft | 23 kts | 298° |
| 2026-04-22 11:51 | -20.89240 | 55.51789 | 86 ft | 23 kts | 296° |
| 2026-04-22 11:51 | -20.89158 | 55.51611 | 84 ft | 26 kts | 295° |
| 2026-04-22 11:51 | -20.89086 | 55.51451 | 83 ft | 16 kts | 294° |
| 2026-04-22 11:51 | -20.89082 | 55.51441 | 83 ft | 0 kts | 294° |
| 2026-04-22 11:52 | -20.89070 | 55.51413 | 82 ft | 10 kts | 296° |
| 2026-04-22 11:52 | -20.89044 | 55.51354 | 82 ft | 9 kts | 282° |
| 2026-04-22 11:52 | -20.89048 | 55.51329 | 83 ft | 0 kts | 218° |
| 2026-04-22 11:53 | -20.89050 | 55.51328 | 83 ft | 2 kts | 216° |
| 2026-04-22 11:53 | -20.89073 | 55.51317 | 85 ft | 3 kts | 208° |
| 2026-04-22 11:53 | -20.89086 | 55.51309 | 86 ft | 3 kts | 207° |
| 2026-04-22 11:53 | -20.89094 | 55.51305 | 86 ft | 0 kts | 207° |
| 2026-04-22 11:54 | -20.89100 | 55.51302 | 87 ft | 1 kts | 207° |
| 2026-04-22 11:54 | -20.89105 | 55.51299 | 87 ft | 0 kts | 207° |